createdAt,value
2023-12-11T00:01:48.150Z,99481.53
2023-12-11T00:04:15.598Z,99475.88
2023-12-11T00:06:42.201Z,99465.16
2023-12-11T00:09:08.912Z,99459.66
2023-12-11T00:11:35.501Z,99456.38
2023-12-11T00:14:02.078Z,99454.69
2023-12-11T00:16:32.138Z,99448.72
2023-12-11T00:18:59.115Z,99442.75
2023-12-11T00:21:25.808Z,99432.63
2023-12-11T00:23:54.196Z,99427.75
2023-12-11T00:26:20.753Z,99430.56
2023-12-11T00:28:48.644Z,99413.00
2023-12-11T00:31:15.571Z,99414.09
2023-12-11T00:33:43.249Z,99408.88
2023-12-11T00:36:10.375Z,99395.72
2023-12-11T00:38:36.965Z,99386.91
2023-12-11T00:41:10.185Z,99384.44
2023-12-11T00:43:44.782Z,99377.88
2023-12-11T00:46:20.801Z,99367.41
2023-12-11T00:48:47.874Z,99357.28
2023-12-11T00:51:21.966Z,99355.84
2023-12-11T00:53:49.069Z,99346.22
2023-12-11T00:56:16.002Z,99336.91
2023-12-11T00:58:42.702Z,99335.06
2023-12-11T01:01:09.378Z,99326.72
2023-12-11T01:03:37.812Z,99331.94
2023-12-11T01:06:05.145Z,99312.69
2023-12-11T01:08:32.884Z,99302.09
2023-12-11T01:11:00.401Z,99292.59
2023-12-11T01:13:27.183Z,99289.06
2023-12-11T01:15:53.838Z,99288.19
2023-12-11T01:18:21.424Z,99286.25
2023-12-11T01:20:48.108Z,99280.88
2023-12-11T01:23:14.622Z,99285.00
2023-12-11T01:25:41.229Z,99275.72
2023-12-11T01:28:07.832Z,99267.22
2023-12-11T01:30:34.416Z,99262.56
2023-12-11T01:33:02.714Z,99261.47
2023-12-11T01:35:29.332Z,99249.84
2023-12-11T01:37:56.685Z,99242.41
2023-12-11T01:40:23.373Z,99257.25
2023-12-11T01:42:51.067Z,99270.28
2023-12-11T01:45:18.883Z,99253.13
2023-12-11T01:47:46.334Z,99248.28
2023-12-11T01:50:13.913Z,99240.50
2023-12-11T01:52:40.537Z,99230.22
2023-12-11T01:55:07.995Z,99231.94
2023-12-11T01:57:35.381Z,99227.13
2023-12-11T02:00:05.933Z,99225.44
2023-12-11T02:02:32.549Z,99218.69
2023-12-11T02:04:59.664Z,99207.53
2023-12-11T02:07:26.487Z,99211.94
2023-12-11T02:09:53.058Z,99204.91
2023-12-11T02:12:19.646Z,99198.69
2023-12-11T02:14:46.296Z,99200.00
2023-12-11T02:17:14.154Z,99205.78
2023-12-11T02:19:40.837Z,99190.09
2023-12-11T02:22:07.570Z,99186.28
2023-12-11T02:24:40.927Z,99174.03
2023-12-11T02:27:07.606Z,99172.19
2023-12-11T02:29:34.268Z,99163.13
2023-12-11T02:32:00.789Z,99168.81
2023-12-11T02:34:27.335Z,99163.44
2023-12-11T02:36:54.845Z,99169.53
2023-12-11T02:39:21.503Z,99161.63
2023-12-11T02:41:48.008Z,99164.53
2023-12-11T02:44:14.713Z,99159.03
2023-12-11T02:46:41.517Z,99157.03
2023-12-11T02:49:08.229Z,99158.59
2023-12-11T02:51:35.053Z,99151.13
2023-12-11T02:54:01.666Z,99153.09
2023-12-11T02:56:28.251Z,99147.72
2023-12-11T02:58:55.598Z,99140.06
2023-12-11T03:01:22.233Z,99155.34
2023-12-11T03:03:48.946Z,99154.50
2023-12-11T03:06:22.422Z,99140.06
2023-12-11T03:08:50.663Z,99148.16
2023-12-11T03:11:17.239Z,99151.41
2023-12-11T03:13:43.763Z,99163.28
2023-12-11T03:16:16.589Z,99150.56
2023-12-11T03:18:43.326Z,99150.84
2023-12-11T03:21:10.361Z,99162.72
2023-12-11T03:23:38.183Z,99166.13
2023-12-11T03:26:05.825Z,99165.56
2023-12-11T03:28:32.485Z,99168.41
2023-12-11T03:30:59.862Z,99169.25
2023-12-11T03:33:26.596Z,99178.16
2023-12-11T03:35:53.125Z,99183.41
2023-12-11T03:38:19.723Z,99175.72
2023-12-11T03:40:46.315Z,99179.16
2023-12-11T03:43:13.127Z,99186.78
2023-12-11T03:45:39.757Z,99185.63
2023-12-11T03:48:06.550Z,99181.69
2023-12-11T03:50:33.414Z,99191.28
2023-12-11T03:52:59.983Z,99187.47
2023-12-11T03:55:26.575Z,99188.88
2023-12-11T03:57:53.118Z,99205.44
2023-12-11T04:00:19.780Z,99207.28
2023-12-11T04:02:46.327Z,99206.44
2023-12-11T04:05:13.546Z,99206.03
2023-12-11T04:07:40.208Z,99208.25
2023-12-11T04:10:08.157Z,99205.72
2023-12-11T04:12:35.506Z,99210.84
2023-12-11T04:15:02.183Z,99210.56
2023-12-11T04:17:29.105Z,99220.47
2023-12-11T04:19:56.879Z,99213.94
2023-12-11T04:22:23.598Z,99220.28
2023-12-11T04:24:50.295Z,99228.94
2023-12-11T04:27:16.938Z,99219.59
2023-12-11T04:29:43.495Z,99237.00
2023-12-11T04:32:10.098Z,99235.47
2023-12-11T04:34:36.657Z,99238.00
2023-12-11T04:37:03.479Z,99228.69
2023-12-11T04:39:30.043Z,99238.59
2023-12-11T04:41:56.655Z,99238.31
2023-12-11T04:44:23.380Z,99238.16
2023-12-11T04:46:49.921Z,99248.22
2023-12-11T04:49:16.664Z,99253.47
2023-12-11T04:51:43.336Z,99255.84
2023-12-11T04:54:10.679Z,99251.91
2023-12-11T04:56:38.202Z,99257.84
2023-12-11T04:59:04.738Z,99257.84
2023-12-11T05:01:31.760Z,99251.94
2023-12-11T05:03:58.357Z,99254.47
2023-12-11T05:06:24.962Z,99257.44
2023-12-11T05:08:53.198Z,99268.22
2023-12-11T05:11:19.751Z,99267.34
2023-12-11T05:13:47.931Z,99272.31
2023-12-11T05:16:14.577Z,99269.47
2023-12-11T05:18:41.356Z,99272.03
2023-12-11T05:21:09.398Z,99261.00
2023-12-11T05:23:36.963Z,99276.31
2023-12-11T05:26:03.792Z,99272.47
2023-12-11T05:28:30.414Z,99270.34
2023-12-11T05:30:57.092Z,99279.53
2023-12-11T05:33:23.763Z,99280.81
2023-12-11T05:35:50.417Z,99277.16
2023-12-11T05:38:16.990Z,99277.16
2023-12-11T05:40:43.757Z,99278.41
2023-12-11T05:43:10.413Z,99281.94
2023-12-11T05:45:37.563Z,99274.56
2023-12-11T05:48:04.878Z,99284.47
2023-12-11T05:50:34.184Z,99282.25
2023-12-11T05:53:01.208Z,99283.94
2023-12-11T05:55:27.788Z,99287.88
2023-12-11T05:57:55.264Z,99291.16
2023-12-11T06:00:22.156Z,99292.84
2023-12-11T06:02:48.741Z,99290.31
2023-12-11T06:05:15.434Z,99288.16
2023-12-11T06:07:42.835Z,99290.84
2023-12-11T06:10:10.235Z,99297.22
2023-12-11T06:12:37.171Z,99303.47
2023-12-11T06:15:04.859Z,99296.53
2023-12-11T06:17:31.815Z,99295.00
2023-12-11T06:19:58.589Z,99298.63
2023-12-11T06:22:25.204Z,99287.75
2023-12-11T06:24:51.892Z,99293.00
2023-12-11T06:27:18.469Z,99293.25
2023-12-11T06:29:45.082Z,99289.72
2023-12-11T06:32:11.685Z,99299.38
2023-12-11T06:34:39.052Z,99303.75
2023-12-11T06:37:06.515Z,99297.25
2023-12-11T06:39:34.328Z,99302.22
2023-12-11T06:42:00.874Z,99299.78
2023-12-11T06:44:28.373Z,99297.94
2023-12-11T06:46:55.565Z,99297.25
2023-12-11T06:49:22.603Z,99299.22
2023-12-11T06:51:50.305Z,99305.75
2023-12-11T06:54:17.043Z,99305.03
2023-12-11T06:56:43.664Z,99309.16
2023-12-11T06:59:10.437Z,99312.25
2023-12-11T07:01:37.455Z,99313.69
2023-12-11T07:04:04.922Z,99319.06
2023-12-11T07:06:31.855Z,99317.63
2023-12-11T07:08:59.045Z,99316.22
2023-12-11T07:11:26.588Z,99321.06
2023-12-11T07:13:54.867Z,99322.19
2023-12-11T07:16:21.869Z,99322.47
2023-12-11T07:18:48.585Z,99333.38
2023-12-11T07:21:15.313Z,99321.06
2023-12-11T07:23:41.996Z,99327.16
2023-12-11T07:26:10.333Z,99328.00
2023-12-11T07:28:37.933Z,99337.78
2023-12-11T07:31:06.644Z,99335.94
2023-12-11T07:33:34.298Z,99352.09
2023-12-11T07:36:02.752Z,99342.31
2023-12-11T07:38:30.028Z,99342.31
2023-12-11T07:40:57.693Z,99342.03
2023-12-11T07:43:24.981Z,99347.69
2023-12-11T07:45:53.097Z,99342.00
2023-12-11T07:48:20.882Z,99347.13
2023-12-11T07:50:47.692Z,99341.44
2023-12-11T07:53:14.411Z,99336.06
2023-12-11T07:55:42.355Z,99346.16
2023-12-11T07:58:09.109Z,99349.41
2023-12-11T08:00:35.739Z,99341.91
2023-12-11T08:03:04.216Z,99345.69
2023-12-11T08:05:31.217Z,99346.00
2023-12-11T08:07:57.772Z,99341.59
2023-12-11T08:10:24.408Z,99348.25
2023-12-11T08:12:55.132Z,99348.25
2023-12-11T08:15:21.759Z,99339.22
2023-12-11T08:17:48.386Z,99338.63
2023-12-11T08:20:18.909Z,99342.00
2023-12-11T08:22:46.706Z,99345.69
2023-12-11T08:25:14.599Z,99339.06
2023-12-11T08:27:42.800Z,99337.06
2023-12-11T08:30:11.941Z,99335.63
2023-12-11T08:32:41.042Z,99328.44
2023-12-11T08:35:09.517Z,99333.81
2023-12-11T08:37:36.823Z,99338.34
2023-12-11T08:40:07.802Z,99329.84
2023-12-11T08:42:40.540Z,99330.84
2023-12-11T08:45:09.343Z,99333.66
2023-12-11T08:47:39.007Z,99329.38
2023-12-11T08:50:09.499Z,99326.69
2023-12-11T08:52:37.966Z,99325.56
2023-12-11T08:55:05.354Z,99318.88
2023-12-11T08:57:32.098Z,99319.16
2023-12-11T08:59:59.053Z,99313.66
2023-12-11T09:02:28.147Z,99319.56
2023-12-11T09:04:54.705Z,99316.16
2023-12-11T09:07:21.396Z,99314.75
2023-12-11T09:09:48.068Z,99325.09
2023-12-11T09:12:23.453Z,99319.16
2023-12-11T09:14:57.837Z,99323.13
2023-12-11T09:17:24.637Z,99319.13
2023-12-11T09:19:55.306Z,99322.13
2023-12-11T09:22:23.310Z,99315.88
2023-12-11T09:24:50.134Z,99317.13
2023-12-11T09:27:16.687Z,99317.72
2023-12-11T09:29:43.198Z,99323.19
2023-12-11T09:32:09.801Z,99311.31
2023-12-11T09:34:36.605Z,99310.47
2023-12-11T09:37:04.191Z,99311.59
2023-12-11T09:39:30.838Z,99310.44
2023-12-11T09:41:58.414Z,99309.69
2023-12-11T09:44:26.553Z,99302.06
2023-12-11T09:47:19.520Z,99307.34
2023-12-11T09:49:49.846Z,99318.13
2023-12-11T09:52:16.847Z,99317.25
2023-12-11T09:54:43.609Z,99313.56
2023-12-11T09:57:14.894Z,99313.59
2023-12-11T09:59:42.482Z,99314.34
2023-12-11T10:02:18.931Z,99320.44
2023-12-11T10:05:01.457Z,99320.69
2023-12-11T10:07:28.069Z,99314.75
2023-12-11T10:09:54.768Z,99311.59
2023-12-11T10:12:21.450Z,99314.59
2023-12-11T10:15:02.780Z,99325.50
2023-12-11T10:17:30.769Z,99308.75
2023-12-11T10:19:57.735Z,99310.88
2023-12-11T10:22:34.609Z,99300.41
2023-12-11T10:25:01.735Z,99298.09
2023-12-11T10:27:28.644Z,99301.63
2023-12-11T10:30:09.065Z,99302.34
2023-12-11T10:32:35.757Z,99299.78
2023-12-11T10:35:03.029Z,99292.63
2023-12-11T10:37:32.472Z,99292.78
2023-12-11T10:39:59.960Z,99292.78
2023-12-11T10:42:27.845Z,99289.25
2023-12-11T10:44:55.727Z,99290.09
2023-12-11T10:47:23.415Z,99285.88
2023-12-11T10:49:50.978Z,99282.69
2023-12-11T10:52:18.328Z,99279.25
2023-12-11T10:54:46.584Z,99281.69
2023-12-11T10:57:18.365Z,99277.03
2023-12-11T10:59:46.469Z,99281.03
2023-12-11T11:02:18.097Z,99269.25
2023-12-11T11:04:45.608Z,99271.13
2023-12-11T11:07:36.259Z,99255.56
2023-12-11T11:10:24.787Z,99259.06
2023-12-11T11:13:06.422Z,99255.34
2023-12-11T11:15:34.029Z,99257.13
2023-12-11T11:18:01.780Z,99254.53
2023-12-11T11:20:32.174Z,99255.34
2023-12-11T11:23:20.139Z,99245.03
2023-12-11T11:25:53.166Z,99251.06
2023-12-11T11:28:43.717Z,99253.91
2023-12-11T11:33:52.050Z,99237.16
2023-12-11T11:36:20.679Z,99238.84
2023-12-11T11:39:02.483Z,99231.38
2023-12-11T11:41:31.764Z,99238.63
2023-12-11T11:44:08.049Z,99244.25
2023-12-11T11:46:54.318Z,99241.09
2023-12-11T11:49:35.233Z,99241.88
2023-12-11T11:52:10.557Z,99235.22
2023-12-11T11:54:38.890Z,99239.63
2023-12-11T11:57:07.483Z,99236.84
2023-12-11T11:59:46.611Z,99240.00
2023-12-11T12:02:13.245Z,99234.53
2023-12-11T12:04:40.136Z,99226.88
2023-12-11T12:07:09.140Z,99225.75
2023-12-11T12:09:35.972Z,99218.09
2023-12-11T12:12:04.239Z,99218.59
2023-12-11T12:14:30.788Z,99214.88
2023-12-11T12:16:57.460Z,99211.09
2023-12-11T12:19:32.635Z,99215.03
2023-12-11T12:22:00.311Z,99209.06
2023-12-11T12:24:27.146Z,99202.59
2023-12-11T12:26:58.856Z,99207.16
2023-12-11T12:29:27.285Z,99207.31
2023-12-11T12:31:54.262Z,99216.16
2023-12-11T12:34:22.120Z,99208.41
2023-12-11T12:36:48.992Z,99212.03
2023-12-11T12:39:19.247Z,99211.41
2023-12-11T12:41:52.141Z,99212.88
2023-12-11T12:44:20.671Z,99202.50
2023-12-11T12:46:48.163Z,99209.31
2023-12-11T12:49:19.373Z,99199.44
2023-12-11T12:51:48.572Z,99207.22
2023-12-11T12:54:16.370Z,99200.34
2023-12-11T12:56:44.503Z,99198.00
2023-12-11T12:59:11.996Z,99201.56
2023-12-11T13:01:40.791Z,99201.44
2023-12-11T13:04:08.963Z,99200.72
2023-12-11T13:06:36.341Z,99197.91
2023-12-11T13:09:04.325Z,99202.06
2023-12-11T13:11:44.034Z,99200.81
2023-12-11T13:14:13.256Z,99196.06
2023-12-11T13:16:45.094Z,99197.97
2023-12-11T13:19:12.862Z,99200.97
2023-12-11T13:21:39.620Z,99204.94
2023-12-11T13:24:06.893Z,99201.31
2023-12-11T13:26:33.372Z,99212.94
2023-12-11T13:28:59.989Z,99211.19
2023-12-11T13:31:26.746Z,99211.78
2023-12-11T13:33:53.681Z,99204.59
2023-12-11T13:36:20.524Z,99207.06
2023-12-11T13:38:47.207Z,99204.94
2023-12-11T13:41:15.631Z,99201.53
2023-12-11T13:43:42.444Z,99201.22
2023-12-11T13:46:09.178Z,99194.06
2023-12-11T13:48:36.875Z,99198.69
2023-12-11T13:51:04.369Z,99191.44
2023-12-11T13:53:30.890Z,99191.59
2023-12-11T13:55:57.406Z,99191.75
2023-12-11T13:58:24.116Z,99189.13
2023-12-11T14:00:52.640Z,99192.88
2023-12-11T14:03:22.259Z,99191.97
2023-12-11T14:05:52.803Z,99193.13
2023-12-11T14:08:19.492Z,99193.59
2023-12-11T14:10:46.385Z,99191.44
2023-12-11T14:13:16.015Z,99198.06
2023-12-11T14:15:43.879Z,99205.53
2023-12-11T14:18:11.939Z,99192.59
2023-12-11T14:20:38.903Z,99203.41
2023-12-11T14:23:05.828Z,99204.00
2023-12-11T14:25:33.115Z,99203.41
2023-12-11T14:28:05.862Z,99206.22
2023-12-11T14:30:38.046Z,99211.78
2023-12-11T14:33:05.604Z,99210.31
2023-12-11T14:35:32.321Z,99202.91
2023-12-11T14:37:59.082Z,99207.91
2023-12-11T14:40:25.790Z,99206.22
2023-12-11T14:42:52.510Z,99203.81
2023-12-11T14:45:19.143Z,99206.69
2023-12-11T14:47:45.824Z,99209.31
2023-12-11T14:50:12.763Z,99213.38
2023-12-11T14:52:39.385Z,99217.00
2023-12-11T14:55:08.155Z,99227.28
2023-12-11T14:57:35.012Z,99219.19
2023-12-11T15:00:02.694Z,99210.91
2023-12-11T15:02:29.506Z,99202.59
2023-12-11T15:04:56.034Z,99206.19
2023-12-11T15:07:22.622Z,99203.44
2023-12-11T15:09:49.315Z,99206.22
2023-12-11T15:12:16.732Z,99202.00
2023-12-11T15:14:44.283Z,99204.53
2023-12-11T15:17:11.923Z,99213.53
2023-12-11T15:19:42.203Z,99211.78
2023-12-11T15:22:09.029Z,99210.41
2023-12-11T15:24:35.724Z,99210.50
2023-12-11T15:27:04.965Z,99218.53
2023-12-11T15:29:31.672Z,99218.91
2023-12-11T15:31:58.308Z,99213.47
2023-12-11T15:34:25.119Z,99214.25
2023-12-11T15:36:51.784Z,99207.41
2023-12-11T15:39:18.371Z,99206.81
2023-12-11T15:41:45.229Z,99211.75
2023-12-11T15:44:12.070Z,99209.19
2023-12-11T15:46:41.233Z,99217.13
2023-12-11T15:49:07.906Z,99208.81
2023-12-11T15:51:34.571Z,99203.81
2023-12-11T15:54:02.714Z,99202.81
2023-12-11T15:56:32.855Z,99211.00
2023-12-11T15:58:59.565Z,99210.47
2023-12-11T16:01:27.215Z,99200.47
2023-12-11T16:03:56.987Z,99209.50
2023-12-11T16:06:24.457Z,99207.00
2023-12-11T16:08:53.210Z,99210.72
2023-12-11T16:34:50.335Z,99226.16
2023-12-11T16:37:16.972Z,99231.66
2023-12-11T16:39:44.063Z,99231.38
2023-12-11T16:42:10.635Z,99237.75
2023-12-11T16:44:37.343Z,99242.56
2023-12-11T16:47:05.066Z,99244.97
2023-12-11T16:49:35.821Z,99252.09
2023-12-11T16:52:09.703Z,99253.78
2023-12-11T16:54:36.285Z,99260.03
2023-12-11T16:57:03.070Z,99265.09
2023-12-11T16:59:29.592Z,99274.03
2023-12-11T17:01:56.200Z,99275.06
2023-12-11T17:04:22.923Z,99288.72
2023-12-11T17:06:49.554Z,99298.09
2023-12-11T17:09:16.148Z,99294.09
2023-12-11T17:11:44.705Z,99304.88
2023-12-11T17:14:12.042Z,99300.91
2023-12-11T17:16:38.626Z,99314.13
2023-12-11T17:19:05.318Z,99313.69
2023-12-11T17:21:34.180Z,99312.31
2023-12-11T17:24:01.239Z,99311.13
2023-12-11T17:26:27.757Z,99320.66
2023-12-11T17:28:54.318Z,99314.50
2023-12-11T17:31:20.962Z,99318.53
2023-12-11T17:33:47.751Z,99318.53
2023-12-11T17:36:17.518Z,99323.63
2023-12-11T17:38:44.033Z,99326.47
2023-12-11T17:41:10.673Z,99336.41
2023-12-11T17:43:37.221Z,99337.25
2023-12-11T17:46:04.446Z,99335.41
2023-12-11T17:48:31.543Z,99340.09
2023-12-11T17:50:58.154Z,99342.19
2023-12-11T17:53:24.717Z,99343.81
2023-12-11T17:55:51.347Z,99351.75
2023-12-11T17:58:17.931Z,99348.59
2023-12-11T18:00:44.510Z,99355.97
2023-12-11T18:03:11.139Z,99357.28
2023-12-11T18:05:37.911Z,99363.09
2023-12-11T18:08:04.782Z,99371.91
2023-12-11T18:10:34.412Z,99375.88
2023-12-11T18:13:01.429Z,99377.88
2023-12-11T18:15:27.976Z,99381.13
2023-12-11T18:17:54.561Z,99387.81
2023-12-11T18:20:21.397Z,99391.25
2023-12-11T18:22:48.064Z,99392.50
2023-12-11T18:25:14.662Z,99390.09
2023-12-11T18:27:41.759Z,99390.94
2023-12-11T18:30:08.868Z,99401.59
2023-12-11T18:32:35.864Z,99410.38
2023-12-11T18:35:03.778Z,99411.13
2023-12-11T18:37:30.797Z,99409.66
2023-12-11T18:39:57.590Z,99420.75
2023-12-11T18:42:24.190Z,99424.16
2023-12-11T18:44:51.018Z,99429.72
2023-12-11T18:47:17.538Z,99431.00
2023-12-11T18:49:44.379Z,99441.22
2023-12-11T18:52:13.100Z,99442.34
2023-12-11T18:54:40.244Z,99445.91
2023-12-11T18:57:06.855Z,99454.28
2023-12-11T18:59:33.663Z,99458.09
2023-12-11T19:02:00.390Z,99465.06
2023-12-11T19:04:27.082Z,99461.38
2023-12-11T19:06:53.753Z,99464.06
2023-12-11T19:09:20.463Z,99467.31
2023-12-11T19:11:48.759Z,99477.25
2023-12-11T19:14:15.274Z,99467.31
2023-12-11T19:16:41.812Z,99472.00
2023-12-11T19:19:11.959Z,99476.97
2023-12-11T19:21:40.676Z,99495.72
2023-12-11T19:24:11.189Z,99493.44
2023-12-11T19:26:40.159Z,99487.50
2023-12-11T19:32:04.849Z,99502.94
2023-12-11T19:34:31.690Z,99512.75
2023-12-11T19:36:58.539Z,99512.16
2023-12-11T19:39:25.397Z,99518.16
2023-12-11T19:41:52.110Z,99524.41
2023-12-11T19:44:19.033Z,99526.09
2023-12-11T19:46:46.946Z,99524.25
2023-12-11T19:49:13.929Z,99529.22
2023-12-11T19:51:43.921Z,99527.34
2023-12-11T19:54:10.882Z,99535.03
2023-12-11T19:56:37.453Z,99528.66
2023-12-11T19:59:04.990Z,99540.84
2023-12-11T20:01:32.228Z,99546.97
2023-12-11T20:03:59.142Z,99548.53
2023-12-11T20:06:27.249Z,99555.31
2023-12-11T20:08:54.666Z,99559.16
2023-12-11T20:11:21.577Z,99562.16
2023-12-11T20:13:50.417Z,99569.50
2023-12-11T20:16:18.329Z,99572.34
2023-12-11T20:18:45.297Z,99581.44
2023-12-11T20:21:11.959Z,99584.81
2023-12-11T20:23:38.537Z,99596.19
2023-12-11T20:26:06.542Z,99594.75
2023-12-11T20:28:33.792Z,99595.72
2023-12-11T20:31:00.694Z,99596.16
2023-12-11T20:33:27.383Z,99597.03
2023-12-11T20:35:54.644Z,99600.44
2023-12-11T20:38:21.354Z,99612.19
2023-12-11T20:40:48.681Z,99610.91
2023-12-11T20:43:15.500Z,99617.28
2023-12-11T20:45:42.313Z,99611.34
2023-12-11T20:48:08.927Z,99622.78
2023-12-11T20:50:38.267Z,99626.50
2023-12-11T20:53:04.824Z,99634.72
2023-12-11T20:55:31.730Z,99632.97
2023-12-11T20:57:58.294Z,99639.97
2023-12-11T21:00:24.927Z,99646.91
2023-12-11T21:02:51.555Z,99646.50
2023-12-11T21:05:18.298Z,99649.06
2023-12-11T21:07:44.997Z,99656.97
2023-12-11T21:10:11.754Z,99656.41
2023-12-11T21:12:38.406Z,99667.47
2023-12-11T21:15:05.432Z,99663.94
2023-12-11T21:17:32.609Z,99667.66
2023-12-11T21:19:59.449Z,99681.25
2023-12-11T21:22:26.148Z,99686.63
2023-12-11T21:24:52.801Z,99688.75
2023-12-11T21:27:19.348Z,99700.56
2023-12-11T21:29:45.926Z,99700.69
2023-12-11T21:32:12.470Z,99708.88
2023-12-11T21:34:44.222Z,99712.84
2023-12-11T21:37:11.502Z,99721.53
2023-12-11T21:39:38.150Z,99722.63
2023-12-11T21:42:05.259Z,99725.50
2023-12-11T21:44:32.194Z,99734.00
2023-12-11T21:46:59.447Z,99732.00
2023-12-11T21:49:27.018Z,99743.38
2023-12-11T21:51:53.774Z,99740.94
2023-12-11T21:54:21.560Z,99749.03
2023-12-11T21:56:48.124Z,99763.50
2023-12-11T21:59:16.735Z,99767.19
2023-12-11T22:01:43.614Z,99776.44
2023-12-11T22:04:12.060Z,99778.66
2023-12-11T22:06:39.124Z,99784.53
2023-12-11T22:09:05.649Z,99790.25
2023-12-11T22:11:32.219Z,99799.50
2023-12-11T22:13:58.988Z,99807.59
2023-12-11T22:16:26.365Z,99813.25
2023-12-11T22:18:53.233Z,99822.91
2023-12-11T22:21:27.081Z,99822.06
2023-12-11T22:23:54.732Z,99833.63
2023-12-11T22:26:23.007Z,99830.81
2023-12-11T22:28:49.475Z,99831.53
2023-12-11T22:31:16.030Z,99846.31
2023-12-11T22:33:42.732Z,99861.44
2023-12-11T22:36:09.499Z,99861.56
2023-12-11T22:38:36.253Z,99873.19
2023-12-11T22:41:03.041Z,99880.44
2023-12-11T22:43:29.763Z,99878.97
2023-12-11T22:45:56.394Z,99900.41
2023-12-11T22:48:23.184Z,99892.97
2023-12-11T22:50:49.784Z,99906.66
2023-12-11T22:53:16.302Z,99908.88
2023-12-11T22:55:42.930Z,99919.78
2023-12-11T22:58:16.158Z,99920.41
2023-12-11T23:00:44.019Z,99920.28
2023-12-11T23:03:10.727Z,99931.47
2023-12-11T23:05:37.488Z,99930.81
2023-12-11T23:08:04.485Z,99935.22
2023-12-11T23:10:31.099Z,99939.13
2023-12-11T23:12:57.681Z,99939.06
2023-12-11T23:15:24.413Z,99941.25
2023-12-11T23:17:50.944Z,99954.22
2023-12-11T23:20:17.744Z,99953.28
2023-12-11T23:22:44.685Z,99954.78
2023-12-11T23:25:11.622Z,99953.53
2023-12-11T23:27:38.665Z,99956.72
2023-12-11T23:30:08.184Z,99964.34
2023-12-11T23:32:35.944Z,99961.91
2023-12-11T23:35:04.049Z,99965.78
2023-12-11T23:37:31.880Z,99968.25
2023-12-11T23:39:59.130Z,99964.94
2023-12-11T23:42:25.736Z,99974.97
2023-12-11T23:44:52.342Z,99975.09
2023-12-11T23:47:18.970Z,99988.56
2023-12-11T23:49:45.939Z,99990.38
2023-12-11T23:52:12.560Z,99997.88
2023-12-11T23:54:39.085Z,100000.94
2023-12-11T23:57:05.537Z,99997.75
2023-12-11T23:59:32.634Z,100007.91
